THY28F LIEO-LEBB
Flight info
| Callsign | THY28F |
|---|---|
| Flight time | 1h 57m |
| Altitude | 40000 |
| Route | POZZO DCT PELOS DCT GIR DCT CEGAM |
| Aircraft | A359/H-SDE2E3GHIJ3J4J5LM1ORWXY/LB1D1 |
Departure
| Time | 2026-04-27 18:31 |
|---|---|
| Airport | Olbia Costa Smeralda Airport (LIEO) |
Arrival
| Time | 2026-04-27 20:29 |
|---|---|
| Airport | Bilbao Airport (LEBB) |
| Time | Latitude | Longitude | Altitude | Speed | Heading |
|---|---|---|---|---|---|
| 2026-04-27 18:23 | 40.90166 | 9.51742 | 53 ft | 0 kts | 85° |
| 2026-04-27 18:27 | 40.90168 | 9.51768 | 54 ft | 4 kts | 82° |
| 2026-04-27 18:27 | 40.90176 | 9.51876 | 54 ft | 16 kts | 88° |
| 2026-04-27 18:28 | 40.90194 | 9.52000 | 53 ft | 13 kts | 58° |
| 2026-04-27 18:28 | 40.90249 | 9.52105 | 53 ft | 15 kts | 53° |
| 2026-04-27 18:28 | 40.90314 | 9.52225 | 53 ft | 17 kts | 55° |
| 2026-04-27 18:28 | 40.90386 | 9.52362 | 53 ft | 19 kts | 56° |
| 2026-04-27 18:29 | 40.90463 | 9.52512 | 53 ft | 19 kts | 56° |
| 2026-04-27 18:29 | 40.90545 | 9.52670 | 53 ft | 21 kts | 56° |
| 2026-04-27 18:29 | 40.90634 | 9.52837 | 53 ft | 23 kts | 55° |
| 2026-04-27 18:29 | 40.90723 | 9.53019 | 53 ft | 17 kts | 56° |
| 2026-04-27 18:30 | 40.90758 | 9.53164 | 53 ft | 17 kts | 108° |
| 2026-04-27 18:30 | 40.90670 | 9.53256 | 53 ft | 8 kts | 180° |
| 2026-04-27 18:30 | 40.90624 | 9.53208 | 53 ft | 9 kts | 234° |
| 2026-04-27 18:30 | 40.90494 | 9.52969 | 53 ft | 77 kts | 235° |
| 2026-04-27 18:31 | 40.90006 | 9.52028 | 54 ft | 167 kts | 236° |
| 2026-04-27 18:31 | 40.89239 | 9.50593 | 494 ft | 209 kts | 235° |
| 2026-04-27 18:31 | 40.88374 | 9.48951 | 1371 ft | 234 kts | 240° |
| 2026-04-27 18:31 | 40.87992 | 9.46848 | 2448 ft | 242 kts | 276° |
| 2026-04-27 18:32 | 40.88366 | 9.44660 | 3334 ft | 252 kts | 288° |
| 2026-04-27 18:32 | 40.88916 | 9.42402 | 4095 ft | 267 kts | 288° |
| 2026-04-27 18:32 | 40.89480 | 9.40029 | 5056 ft | 274 kts | 287° |
| 2026-04-27 18:32 | 40.90011 | 9.37637 | 6089 ft | 277 kts | 286° |
| 2026-04-27 18:33 | 40.90521 | 9.35184 | 7119 ft | 280 kts | 285° |
| 2026-04-27 18:33 | 40.91011 | 9.32707 | 8164 ft | 282 kts | 284° |
| 2026-04-27 18:33 | 40.91489 | 9.30226 | 9202 ft | 285 kts | 284° |
| 2026-04-27 18:33 | 40.91973 | 9.27668 | 10232 ft | 288 kts | 284° |
| 2026-04-27 18:34 | 40.92463 | 9.25059 | 11019 ft | 299 kts | 284° |
| 2026-04-27 18:34 | 40.92955 | 9.22432 | 11600 ft | 315 kts | 284° |
| 2026-04-27 18:34 | 40.93493 | 9.19544 | 12187 ft | 333 kts | 284° |
| 2026-04-27 18:34 | 40.94059 | 9.16501 | 12716 ft | 350 kts | 284° |
| 2026-04-27 18:35 | 40.94648 | 9.13313 | 13200 ft | 367 kts | 284° |
| 2026-04-27 18:35 | 40.95269 | 9.09947 | 13702 ft | 383 kts | 284° |
| 2026-04-27 18:35 | 40.95897 | 9.06541 | 14404 ft | 391 kts | 284° |
| 2026-04-27 18:35 | 40.96549 | 9.03005 | 15217 ft | 395 kts | 284° |
| 2026-04-27 18:36 | 40.97196 | 8.99480 | 16020 ft | 399 kts | 284° |
| 2026-04-27 18:36 | 40.97850 | 8.95914 | 16806 ft | 403 kts | 284° |
| 2026-04-27 18:36 | 40.98506 | 8.92332 | 17568 ft | 407 kts | 283° |
| 2026-04-27 18:36 | 40.99179 | 8.88650 | 18321 ft | 411 kts | 283° |
| 2026-04-27 18:37 | 40.99847 | 8.84976 | 19051 ft | 416 kts | 283° |
| 2026-04-27 18:37 | 41.00532 | 8.81212 | 19749 ft | 420 kts | 283° |
| 2026-04-27 18:37 | 41.01213 | 8.77452 | 20438 ft | 425 kts | 283° |
| 2026-04-27 18:37 | 41.01898 | 8.73663 | 21098 ft | 429 kts | 283° |
| 2026-04-27 18:38 | 41.02594 | 8.69814 | 21742 ft | 434 kts | 283° |
| 2026-04-27 18:38 | 41.03301 | 8.65894 | 22391 ft | 438 kts | 283° |
| 2026-04-27 18:38 | 41.04013 | 8.61944 | 23005 ft | 443 kts | 283° |
| 2026-04-27 18:38 | 41.04727 | 8.57963 | 23602 ft | 447 kts | 283° |
| 2026-04-27 18:39 | 41.05442 | 8.53966 | 24181 ft | 451 kts | 283° |
| 2026-04-27 18:39 | 41.06160 | 8.49943 | 24819 ft | 452 kts | 283° |
| 2026-04-27 18:39 | 41.06875 | 8.45930 | 25661 ft | 449 kts | 283° |
| 2026-04-27 18:39 | 41.07587 | 8.41930 | 26332 ft | 449 kts | 283° |
| 2026-04-27 18:40 | 41.08304 | 8.37893 | 26864 ft | 452 kts | 283° |
| 2026-04-27 18:40 | 41.09031 | 8.33794 | 27343 ft | 455 kts | 283° |
| 2026-04-27 18:40 | 41.09751 | 8.29715 | 27823 ft | 457 kts | 283° |
| 2026-04-27 18:40 | 41.10479 | 8.25597 | 28283 ft | 460 kts | 283° |
| 2026-04-27 18:41 | 41.11224 | 8.21444 | 28727 ft | 463 kts | 283° |
| 2026-04-27 18:41 | 41.11966 | 8.17300 | 29180 ft | 465 kts | 283° |
| 2026-04-27 18:41 | 41.12722 | 8.13043 | 29593 ft | 467 kts | 284° |
| 2026-04-27 18:41 | 41.13453 | 8.08905 | 29955 ft | 470 kts | 284° |
| 2026-04-27 18:42 | 41.14196 | 8.04670 | 30096 ft | 471 kts | 284° |
| 2026-04-27 18:42 | 41.14451 | 8.03220 | 30091 ft | 471 kts | 284° |
| 2026-04-27 18:42 | 41.16428 | 7.91866 | 30083 ft | 470 kts | 284° |
| 2026-04-27 18:43 | 41.17885 | 7.83430 | 30097 ft | 470 kts | 284° |
| 2026-04-27 18:43 | 41.19339 | 7.74983 | 30086 ft | 470 kts | 284° |
| 2026-04-27 18:44 | 41.20783 | 7.66545 | 30086 ft | 470 kts | 284° |
| 2026-04-27 18:44 | 41.22228 | 7.58075 | 30088 ft | 469 kts | 284° |
| 2026-04-27 18:45 | 41.23653 | 7.49664 | 30077 ft | 469 kts | 285° |
| 2026-04-27 18:45 | 41.25079 | 7.41216 | 30084 ft | 469 kts | 285° |
| 2026-04-27 18:46 | 41.26500 | 7.32762 | 30099 ft | 469 kts | 284° |
| 2026-04-27 18:46 | 41.27914 | 7.24262 | 30084 ft | 469 kts | 285° |
| 2026-04-27 18:47 | 41.29311 | 7.15843 | 30089 ft | 469 kts | 285° |
| 2026-04-27 18:47 | 41.30720 | 7.07334 | 30078 ft | 469 kts | 285° |
| 2026-04-27 18:48 | 41.32117 | 6.98850 | 30081 ft | 469 kts | 285° |
| 2026-04-27 18:48 | 41.33506 | 6.90390 | 30082 ft | 469 kts | 285° |
| 2026-04-27 18:49 | 41.34858 | 6.82087 | 30100 ft | 446 kts | 285° |
| 2026-04-27 18:49 | 41.35501 | 6.78114 | 30099 ft | 431 kts | 285° |
| 2026-04-27 18:49 | 41.36121 | 6.74282 | 30094 ft | 417 kts | 285° |
| 2026-04-27 18:50 | 41.37316 | 6.66899 | 30088 ft | 406 kts | 286° |
| 2026-04-27 18:50 | 41.38506 | 6.59539 | 30086 ft | 405 kts | 285° |
| 2026-04-27 18:51 | 41.39087 | 6.55921 | 30073 ft | 392 kts | 285° |
| 2026-04-27 18:51 | 41.39635 | 6.52480 | 30080 ft | 378 kts | 286° |
| 2026-04-27 18:51 | 41.40727 | 6.45656 | 30090 ft | 376 kts | 286° |
| 2026-04-27 18:52 | 41.41813 | 6.38855 | 30082 ft | 376 kts | 286° |
| 2026-04-27 18:53 | 41.43423 | 6.28664 | 30077 ft | 375 kts | 285° |
| 2026-04-27 18:53 | 41.44485 | 6.21900 | 30082 ft | 375 kts | 285° |
| 2026-04-27 18:54 | 41.45547 | 6.15110 | 30077 ft | 375 kts | 285° |
| 2026-04-27 18:54 | 41.46607 | 6.08321 | 30082 ft | 374 kts | 285° |
| 2026-04-27 18:55 | 41.47663 | 6.01530 | 30072 ft | 374 kts | 285° |
| 2026-04-27 18:55 | 41.48711 | 5.94759 | 30073 ft | 374 kts | 285° |
| 2026-04-27 18:56 | 41.49760 | 5.87966 | 30073 ft | 374 kts | 285° |
| 2026-04-27 18:56 | 41.50802 | 5.81185 | 30071 ft | 374 kts | 285° |
| 2026-04-27 18:57 | 41.51840 | 5.74396 | 30071 ft | 374 kts | 285° |
| 2026-04-27 18:57 | 41.52869 | 5.67640 | 30072 ft | 374 kts | 285° |
| 2026-04-27 18:58 | 41.53912 | 5.60819 | 30080 ft | 375 kts | 285° |
| 2026-04-27 18:58 | 41.54928 | 5.54052 | 30069 ft | 374 kts | 284° |
| 2026-04-27 18:59 | 41.55940 | 5.47233 | 30071 ft | 374 kts | 284° |
| 2026-04-27 18:59 | 41.56956 | 5.40402 | 30072 ft | 374 kts | 284° |
| 2026-04-27 19:00 | 41.57968 | 5.33603 | 30073 ft | 374 kts | 284° |
| 2026-04-27 19:00 | 41.58978 | 5.26767 | 30072 ft | 375 kts | 284° |
| 2026-04-27 19:01 | 41.59982 | 5.19944 | 30072 ft | 375 kts | 284° |
| 2026-04-27 19:01 | 41.60986 | 5.13128 | 30073 ft | 375 kts | 284° |
| 2026-04-27 19:02 | 41.61990 | 5.06301 | 30072 ft | 375 kts | 283° |
| 2026-04-27 19:02 | 41.62987 | 4.99461 | 30072 ft | 375 kts | 283° |
| 2026-04-27 19:03 | 41.63984 | 4.92614 | 30070 ft | 374 kts | 283° |
| 2026-04-27 19:03 | 41.64971 | 4.85797 | 30068 ft | 374 kts | 283° |
| 2026-04-27 19:04 | 41.65951 | 4.78990 | 30069 ft | 375 kts | 283° |
| 2026-04-27 19:04 | 41.66932 | 4.72149 | 30069 ft | 374 kts | 283° |
| 2026-04-27 19:05 | 41.67904 | 4.65339 | 30067 ft | 374 kts | 283° |
| 2026-04-27 19:05 | 41.68877 | 4.58499 | 30073 ft | 374 kts | 283° |
| 2026-04-27 19:06 | 41.69838 | 4.51703 | 30071 ft | 374 kts | 283° |
| 2026-04-27 19:06 | 41.70803 | 4.44860 | 30070 ft | 374 kts | 283° |
| 2026-04-27 19:07 | 41.71757 | 4.38054 | 30065 ft | 374 kts | 283° |
| 2026-04-27 19:07 | 41.72715 | 4.31183 | 30073 ft | 374 kts | 282° |
| 2026-04-27 19:08 | 41.73665 | 4.24317 | 30070 ft | 374 kts | 282° |
| 2026-04-27 19:08 | 41.74614 | 4.17442 | 30068 ft | 374 kts | 282° |
| 2026-04-27 19:09 | 41.75554 | 4.10613 | 30067 ft | 374 kts | 282° |
| 2026-04-27 19:09 | 41.76490 | 4.03784 | 30067 ft | 374 kts | 282° |
| 2026-04-27 19:10 | 41.77432 | 3.96901 | 30071 ft | 374 kts | 281° |
| 2026-04-27 19:10 | 41.78374 | 3.90099 | 30075 ft | 374 kts | 281° |
| 2026-04-27 19:11 | 41.79287 | 3.83213 | 30071 ft | 374 kts | 281° |
| 2026-04-27 19:11 | 41.80199 | 3.76366 | 30070 ft | 374 kts | 281° |
| 2026-04-27 19:12 | 41.81114 | 3.69528 | 30067 ft | 374 kts | 281° |
| 2026-04-27 19:12 | 41.82023 | 3.62700 | 30066 ft | 374 kts | 281° |
| 2026-04-27 19:13 | 41.82937 | 3.55811 | 30065 ft | 374 kts | 281° |
| 2026-04-27 19:13 | 41.83840 | 3.48965 | 30063 ft | 374 kts | 281° |
| 2026-04-27 19:14 | 41.84740 | 3.42114 | 30063 ft | 374 kts | 281° |
| 2026-04-27 19:14 | 41.85638 | 3.35254 | 30061 ft | 374 kts | 281° |
| 2026-04-27 19:15 | 41.86524 | 3.28424 | 30060 ft | 374 kts | 280° |
| 2026-04-27 19:15 | 41.87416 | 3.21525 | 30060 ft | 375 kts | 279° |
| 2026-04-27 19:16 | 41.88303 | 3.14639 | 30060 ft | 375 kts | 279° |
| 2026-04-27 19:16 | 41.89189 | 3.07748 | 30060 ft | 375 kts | 279° |
| 2026-04-27 19:17 | 41.90073 | 3.00843 | 30060 ft | 375 kts | 279° |
| 2026-04-27 19:17 | 41.90956 | 2.93924 | 30062 ft | 375 kts | 279° |
| 2026-04-27 19:18 | 41.91830 | 2.87036 | 30063 ft | 376 kts | 279° |
| 2026-04-27 19:18 | 41.92707 | 2.80102 | 30065 ft | 375 kts | 280° |
| 2026-04-27 19:19 | 41.93961 | 2.73310 | 30072 ft | 375 kts | 287° |
| 2026-04-27 19:19 | 41.95520 | 2.66647 | 30073 ft | 375 kts | 287° |
| 2026-04-27 19:20 | 41.97091 | 2.59961 | 30078 ft | 375 kts | 287° |
| 2026-04-27 19:20 | 41.98622 | 2.53419 | 30085 ft | 374 kts | 287° |
| 2026-04-27 19:21 | 42.00176 | 2.46754 | 30094 ft | 375 kts | 287° |
| 2026-04-27 19:21 | 42.01721 | 2.40101 | 30097 ft | 375 kts | 287° |
| 2026-04-27 19:22 | 42.03269 | 2.33410 | 30095 ft | 374 kts | 287° |
| 2026-04-27 19:22 | 42.04805 | 2.26732 | 30095 ft | 374 kts | 287° |
| 2026-04-27 19:23 | 42.06334 | 2.20074 | 30103 ft | 375 kts | 287° |
| 2026-04-27 19:23 | 42.07868 | 2.13382 | 30104 ft | 374 kts | 287° |
| 2026-04-27 19:24 | 42.09395 | 2.06704 | 30112 ft | 374 kts | 287° |
| 2026-04-27 19:24 | 42.10935 | 2.00002 | 30114 ft | 374 kts | 287° |
| 2026-04-27 19:25 | 42.12477 | 1.93320 | 30120 ft | 374 kts | 287° |
| 2026-04-27 19:25 | 42.13998 | 1.86660 | 30125 ft | 374 kts | 287° |
| 2026-04-27 19:26 | 42.15523 | 1.79929 | 30128 ft | 374 kts | 286° |
| 2026-04-27 19:26 | 42.17034 | 1.73227 | 30127 ft | 374 kts | 287° |
| 2026-04-27 19:27 | 42.18518 | 1.66628 | 30132 ft | 374 kts | 286° |
| 2026-04-27 19:27 | 42.20021 | 1.59918 | 30135 ft | 374 kts | 286° |
| 2026-04-27 19:28 | 42.21521 | 1.53197 | 30140 ft | 374 kts | 286° |
| 2026-04-27 19:28 | 42.23015 | 1.46484 | 30142 ft | 374 kts | 287° |
| 2026-04-27 19:29 | 42.24504 | 1.39772 | 30148 ft | 374 kts | 287° |
| 2026-04-27 19:29 | 42.25998 | 1.33013 | 30150 ft | 374 kts | 285° |
| 2026-04-27 19:30 | 42.27467 | 1.26326 | 30151 ft | 374 kts | 285° |
| 2026-04-27 19:30 | 42.28950 | 1.19562 | 30149 ft | 374 kts | 286° |
| 2026-04-27 19:31 | 42.30426 | 1.12822 | 30147 ft | 374 kts | 286° |
| 2026-04-27 19:31 | 42.31895 | 1.06092 | 30143 ft | 375 kts | 286° |
| 2026-04-27 19:32 | 42.33360 | 0.99365 | 30144 ft | 375 kts | 286° |
| 2026-04-27 19:32 | 42.34834 | 0.92573 | 30143 ft | 375 kts | 286° |
| 2026-04-27 19:33 | 42.36300 | 0.85800 | 30144 ft | 375 kts | 286° |
| 2026-04-27 19:33 | 42.37754 | 0.79058 | 30149 ft | 374 kts | 285° |
| 2026-04-27 19:34 | 42.39202 | 0.72320 | 30152 ft | 374 kts | 285° |
| 2026-04-27 19:34 | 42.39955 | 0.65402 | 30143 ft | 373 kts | 274° |
| 2026-04-27 19:34 | 42.40481 | 0.62013 | 30152 ft | 373 kts | 288° |
| 2026-04-27 19:35 | 42.41356 | 0.58724 | 30143 ft | 374 kts | 290° |
| 2026-04-27 19:35 | 42.43081 | 0.52081 | 30141 ft | 374 kts | 288° |
| 2026-04-27 19:36 | 42.44646 | 0.45355 | 30132 ft | 373 kts | 286° |
| 2026-04-27 19:36 | 42.46122 | 0.38643 | 30139 ft | 373 kts | 286° |
| 2026-04-27 19:37 | 42.47572 | 0.31871 | 30142 ft | 373 kts | 285° |
| 2026-04-27 19:37 | 42.48996 | 0.25129 | 30148 ft | 373 kts | 285° |
| 2026-04-27 19:38 | 42.50426 | 0.18333 | 30151 ft | 373 kts | 284° |
| 2026-04-27 19:38 | 42.51837 | 0.11603 | 30148 ft | 373 kts | 284° |
| 2026-04-27 19:39 | 42.53249 | 0.04846 | 30145 ft | 374 kts | 284° |
| 2026-04-27 19:39 | 42.54667 | -0.01958 | 30137 ft | 373 kts | 284° |
| 2026-04-27 19:40 | 42.56067 | -0.08698 | 30149 ft | 373 kts | 284° |
| 2026-04-27 19:40 | 42.57467 | -0.15461 | 30147 ft | 373 kts | 284° |
| 2026-04-27 19:41 | 42.58869 | -0.22253 | 30156 ft | 373 kts | 284° |
| 2026-04-27 19:41 | 42.60262 | -0.29024 | 30157 ft | 373 kts | 284° |
| 2026-04-27 19:42 | 42.61653 | -0.35813 | 30164 ft | 372 kts | 284° |
| 2026-04-27 19:42 | 42.63032 | -0.42568 | 30162 ft | 373 kts | 284° |
| 2026-04-27 19:43 | 42.64408 | -0.49329 | 30150 ft | 372 kts | 284° |
| 2026-04-27 19:43 | 42.65780 | -0.56086 | 30150 ft | 372 kts | 284° |
| 2026-04-27 19:44 | 42.67161 | -0.62916 | 30144 ft | 372 kts | 284° |
| 2026-04-27 19:44 | 42.68523 | -0.69690 | 30136 ft | 372 kts | 283° |
| 2026-04-27 19:45 | 42.69883 | -0.76482 | 30118 ft | 371 kts | 283° |
| 2026-04-27 19:45 | 42.71232 | -0.83229 | 30122 ft | 372 kts | 283° |
| 2026-04-27 19:46 | 42.72587 | -0.90025 | 30122 ft | 371 kts | 283° |
| 2026-04-27 19:46 | 42.73922 | -0.96735 | 30120 ft | 371 kts | 283° |
| 2026-04-27 19:47 | 42.75271 | -1.03549 | 30115 ft | 371 kts | 283° |
| 2026-04-27 19:47 | 42.76617 | -1.10366 | 30114 ft | 371 kts | 283° |
| 2026-04-27 19:48 | 42.77944 | -1.17107 | 30118 ft | 376 kts | 283° |
| 2026-04-27 19:48 | 42.78625 | -1.20588 | 29952 ft | 384 kts | 283° |
| 2026-04-27 19:48 | 42.79316 | -1.24121 | 29379 ft | 391 kts | 283° |
| 2026-04-27 19:48 | 42.80023 | -1.27740 | 28503 ft | 398 kts | 283° |
| 2026-04-27 19:49 | 42.80733 | -1.31380 | 27553 ft | 406 kts | 283° |
| 2026-04-27 19:49 | 42.81460 | -1.35120 | 26570 ft | 414 kts | 283° |
| 2026-04-27 19:49 | 42.82197 | -1.38915 | 25564 ft | 422 kts | 283° |
| 2026-04-27 19:49 | 42.82949 | -1.42796 | 24701 ft | 425 kts | 283° |
| 2026-04-27 19:50 | 42.83696 | -1.46652 | 24219 ft | 419 kts | 283° |
| 2026-04-27 19:50 | 42.84434 | -1.50460 | 23751 ft | 414 kts | 283° |
| 2026-04-27 19:50 | 42.85160 | -1.54219 | 23297 ft | 409 kts | 283° |
| 2026-04-27 19:50 | 42.85873 | -1.57921 | 22850 ft | 404 kts | 283° |
| 2026-04-27 19:51 | 42.86585 | -1.61614 | 22399 ft | 400 kts | 283° |
| 2026-04-27 19:51 | 42.87289 | -1.65277 | 21945 ft | 397 kts | 282° |
| 2026-04-27 19:51 | 42.87973 | -1.68860 | 21503 ft | 393 kts | 282° |
| 2026-04-27 19:51 | 42.88656 | -1.72441 | 21059 ft | 390 kts | 282° |
| 2026-04-27 19:52 | 42.89342 | -1.76033 | 20616 ft | 387 kts | 282° |
| 2026-04-27 19:52 | 42.89783 | -1.78352 | 20320 ft | 385 kts | 282° |
| 2026-04-27 19:52 | 42.90678 | -1.83055 | 19733 ft | 381 kts | 282° |
| 2026-04-27 19:52 | 42.91333 | -1.86504 | 19304 ft | 379 kts | 282° |
| 2026-04-27 19:53 | 42.92647 | -1.93436 | 18417 ft | 374 kts | 282° |
| 2026-04-27 19:53 | 42.93290 | -1.96837 | 17985 ft | 372 kts | 282° |
| 2026-04-27 19:53 | 42.93932 | -2.00234 | 17556 ft | 370 kts | 282° |
| 2026-04-27 19:54 | 42.94572 | -2.03632 | 17117 ft | 368 kts | 282° |
| 2026-04-27 19:54 | 42.95202 | -2.06966 | 16684 ft | 366 kts | 282° |
| 2026-04-27 19:54 | 42.95836 | -2.10341 | 16235 ft | 363 kts | 282° |
| 2026-04-27 19:54 | 42.96457 | -2.13657 | 15801 ft | 361 kts | 282° |
| 2026-04-27 19:55 | 42.97066 | -2.16922 | 15385 ft | 359 kts | 282° |
| 2026-04-27 19:55 | 42.97697 | -2.20222 | 14964 ft | 357 kts | 284° |
| 2026-04-27 19:55 | 42.98533 | -2.23389 | 14546 ft | 357 kts | 291° |
| 2026-04-27 19:55 | 42.99643 | -2.26428 | 14120 ft | 356 kts | 298° |
| 2026-04-27 19:56 | 43.00938 | -2.29298 | 13704 ft | 355 kts | 300° |
| 2026-04-27 19:56 | 43.02264 | -2.32108 | 13285 ft | 353 kts | 301° |
| 2026-04-27 19:56 | 43.03601 | -2.34930 | 12842 ft | 351 kts | 301° |
| 2026-04-27 19:56 | 43.04931 | -2.37745 | 12384 ft | 350 kts | 301° |
| 2026-04-27 19:57 | 43.06232 | -2.40511 | 11925 ft | 349 kts | 301° |
| 2026-04-27 19:57 | 43.07614 | -2.43462 | 11419 ft | 383 kts | 301° |
| 2026-04-27 19:57 | 43.09050 | -2.46536 | 10925 ft | 385 kts | 301° |
| 2026-04-27 19:57 | 43.10484 | -2.49601 | 10660 ft | 385 kts | 302° |
| 2026-04-27 19:58 | 43.11943 | -2.52699 | 10507 ft | 385 kts | 302° |
| 2026-04-27 19:58 | 43.13393 | -2.55780 | 10356 ft | 385 kts | 302° |
| 2026-04-27 19:58 | 43.14825 | -2.58836 | 10231 ft | 384 kts | 302° |
| 2026-04-27 19:58 | 43.16267 | -2.61925 | 10123 ft | 384 kts | 302° |
| 2026-04-27 19:59 | 43.17692 | -2.64988 | 9792 ft | 382 kts | 302° |
| 2026-04-27 19:59 | 43.19113 | -2.68056 | 9404 ft | 381 kts | 301° |
| 2026-04-27 19:59 | 43.20534 | -2.71138 | 9028 ft | 378 kts | 301° |
| 2026-04-27 19:59 | 43.21926 | -2.74153 | 8659 ft | 377 kts | 302° |
| 2026-04-27 20:00 | 43.23323 | -2.77176 | 8287 ft | 373 kts | 302° |
| 2026-04-27 20:00 | 43.24704 | -2.80166 | 7948 ft | 372 kts | 302° |
| 2026-04-27 20:00 | 43.26075 | -2.83138 | 7583 ft | 371 kts | 302° |
| 2026-04-27 20:00 | 43.27472 | -2.86167 | 7211 ft | 369 kts | 302° |
| 2026-04-27 20:01 | 43.28833 | -2.89125 | 6858 ft | 367 kts | 302° |
| 2026-04-27 20:01 | 43.30249 | -2.92035 | 6498 ft | 365 kts | 308° |
| 2026-04-27 20:01 | 43.31941 | -2.94456 | 6149 ft | 338 kts | 318° |
| 2026-04-27 20:01 | 43.33638 | -2.96497 | 5846 ft | 308 kts | 320° |
| 2026-04-27 20:02 | 43.35217 | -2.98344 | 5569 ft | 286 kts | 321° |
| 2026-04-27 20:02 | 43.36684 | -3.00060 | 5309 ft | 269 kts | 321° |
| 2026-04-27 20:02 | 43.38096 | -3.01721 | 5058 ft | 267 kts | 321° |
| 2026-04-27 20:02 | 43.39488 | -3.03370 | 4803 ft | 268 kts | 321° |
| 2026-04-27 20:03 | 43.40895 | -3.05046 | 4543 ft | 267 kts | 321° |
| 2026-04-27 20:03 | 43.42300 | -3.06723 | 4313 ft | 263 kts | 321° |
| 2026-04-27 20:03 | 43.43638 | -3.08329 | 4259 ft | 244 kts | 321° |
| 2026-04-27 20:03 | 43.44848 | -3.09781 | 4224 ft | 221 kts | 321° |
| 2026-04-27 20:04 | 43.45955 | -3.11109 | 4196 ft | 201 kts | 322° |
| 2026-04-27 20:04 | 43.46961 | -3.12344 | 4146 ft | 184 kts | 314° |
| 2026-04-27 20:04 | 43.47506 | -3.13850 | 4082 ft | 177 kts | 277° |
| 2026-04-27 20:04 | 43.47479 | -3.14974 | 4055 ft | 178 kts | 255° |
| 2026-04-27 20:05 | 43.46589 | -3.16824 | 3982 ft | 176 kts | 210° |
| 2026-04-27 20:05 | 43.45461 | -3.17437 | 3946 ft | 175 kts | 190° |
| 2026-04-27 20:05 | 43.44289 | -3.17788 | 3903 ft | 166 kts | 189° |
| 2026-04-27 20:05 | 43.43184 | -3.18111 | 3767 ft | 160 kts | 189° |
| 2026-04-27 20:06 | 43.42113 | -3.18443 | 3611 ft | 154 kts | 189° |
| 2026-04-27 20:06 | 43.41096 | -3.18764 | 3571 ft | 146 kts | 187° |
| 2026-04-27 20:06 | 43.40165 | -3.18528 | 3541 ft | 134 kts | 133° |
| 2026-04-27 20:06 | 43.39646 | -3.17496 | 3581 ft | 133 kts | 112° |
| 2026-04-27 20:07 | 43.39272 | -3.16325 | 3581 ft | 134 kts | 109° |
| 2026-04-27 20:07 | 43.38907 | -3.15148 | 3576 ft | 134 kts | 110° |
| 2026-04-27 20:07 | 43.38516 | -3.13959 | 3568 ft | 136 kts | 111° |
| 2026-04-27 20:07 | 43.38114 | -3.12798 | 3389 ft | 135 kts | 112° |
| 2026-04-27 20:08 | 43.37699 | -3.11631 | 3208 ft | 134 kts | 112° |
| 2026-04-27 20:08 | 43.37279 | -3.10487 | 3024 ft | 134 kts | 112° |
| 2026-04-27 20:08 | 43.36856 | -3.09344 | 2840 ft | 134 kts | 113° |
| 2026-04-27 20:08 | 43.36436 | -3.08212 | 2661 ft | 134 kts | 113° |
| 2026-04-27 20:09 | 43.36009 | -3.07070 | 2483 ft | 133 kts | 113° |
| 2026-04-27 20:09 | 43.35593 | -3.05946 | 2309 ft | 133 kts | 113° |
| 2026-04-27 20:09 | 43.35171 | -3.04811 | 2128 ft | 133 kts | 113° |
| 2026-04-27 20:09 | 43.34753 | -3.03683 | 1951 ft | 132 kts | 113° |
| 2026-04-27 20:10 | 43.34475 | -3.02933 | 1829 ft | 132 kts | 112° |
| 2026-04-27 20:10 | 43.33923 | -3.01435 | 1590 ft | 133 kts | 114° |
| 2026-04-27 20:10 | 43.33504 | -3.00298 | 1408 ft | 132 kts | 114° |
| 2026-04-27 20:10 | 43.33091 | -2.99181 | 1231 ft | 133 kts | 115° |
| 2026-04-27 20:11 | 43.32677 | -2.98055 | 1051 ft | 132 kts | 114° |
| 2026-04-27 20:11 | 43.32269 | -2.96927 | 892 ft | 131 kts | 116° |
| 2026-04-27 20:11 | 43.31853 | -2.95821 | 688 ft | 130 kts | 115° |
| 2026-04-27 20:11 | 43.31456 | -2.94719 | 499 ft | 130 kts | 115° |
| 2026-04-27 20:12 | 43.31040 | -2.93600 | 334 ft | 130 kts | 116° |
| 2026-04-27 20:12 | 43.30776 | -2.92869 | 214 ft | 128 kts | 116° |
| 2026-04-27 20:12 | 43.30264 | -2.91473 | 143 ft | 124 kts | 119° |
| 2026-04-27 20:12 | 43.29794 | -2.90221 | 527 ft | 164 kts | 116° |
| 2026-04-27 20:13 | 43.29264 | -2.88753 | 1185 ft | 178 kts | 114° |
| 2026-04-27 20:13 | 43.28707 | -2.87223 | 1940 ft | 187 kts | 114° |
| 2026-04-27 20:13 | 43.28136 | -2.85667 | 2735 ft | 185 kts | 114° |
| 2026-04-27 20:13 | 43.27555 | -2.84084 | 3269 ft | 186 kts | 114° |
| 2026-04-27 20:14 | 43.26977 | -2.82508 | 3534 ft | 186 kts | 114° |
| 2026-04-27 20:14 | 43.26424 | -2.80905 | 3569 ft | 184 kts | 103° |
| 2026-04-27 20:14 | 43.26541 | -2.79250 | 3559 ft | 176 kts | 55° |
| 2026-04-27 20:14 | 43.27467 | -2.78178 | 3575 ft | 178 kts | 22° |
| 2026-04-27 20:15 | 43.28690 | -2.77974 | 3571 ft | 182 kts | 350° |
| 2026-04-27 20:15 | 43.29821 | -2.78786 | 3575 ft | 188 kts | 314° |
| 2026-04-27 20:15 | 43.30604 | -2.80184 | 3585 ft | 192 kts | 309° |
| 2026-04-27 20:15 | 43.31412 | -2.81676 | 3581 ft | 192 kts | 309° |
| 2026-04-27 20:16 | 43.32213 | -2.83136 | 3581 ft | 192 kts | 309° |
| 2026-04-27 20:16 | 43.33060 | -2.84660 | 3584 ft | 220 kts | 309° |
| 2026-04-27 20:16 | 43.34039 | -2.86411 | 3578 ft | 233 kts | 309° |
| 2026-04-27 20:16 | 43.35025 | -2.88184 | 3583 ft | 239 kts | 309° |
| 2026-04-27 20:17 | 43.36053 | -2.90028 | 3581 ft | 245 kts | 309° |
| 2026-04-27 20:17 | 43.37094 | -2.91894 | 3583 ft | 246 kts | 309° |
| 2026-04-27 20:17 | 43.38130 | -2.93751 | 3584 ft | 246 kts | 309° |
| 2026-04-27 20:17 | 43.38828 | -2.95003 | 3584 ft | 245 kts | 309° |
| 2026-04-27 20:18 | 43.40215 | -2.97492 | 3583 ft | 246 kts | 309° |
| 2026-04-27 20:18 | 43.41261 | -2.99365 | 3583 ft | 246 kts | 310° |
| 2026-04-27 20:18 | 43.42307 | -3.01240 | 3581 ft | 247 kts | 309° |
| 2026-04-27 20:18 | 43.43350 | -3.03109 | 3580 ft | 246 kts | 309° |
| 2026-04-27 20:19 | 43.44384 | -3.04963 | 3581 ft | 246 kts | 309° |
| 2026-04-27 20:19 | 43.45429 | -3.06844 | 3580 ft | 246 kts | 309° |
| 2026-04-27 20:19 | 43.46104 | -3.08056 | 3569 ft | 239 kts | 310° |
| 2026-04-27 20:19 | 43.47403 | -3.10396 | 3573 ft | 222 kts | 310° |
| 2026-04-27 20:20 | 43.48317 | -3.12044 | 3574 ft | 210 kts | 309° |
| 2026-04-27 20:20 | 43.48911 | -3.13817 | 3547 ft | 203 kts | 272° |
| 2026-04-27 20:20 | 43.48528 | -3.15564 | 3599 ft | 186 kts | 234° |
| 2026-04-27 20:20 | 43.47609 | -3.16677 | 3572 ft | 167 kts | 204° |
| 2026-04-27 20:21 | 43.46572 | -3.17120 | 3551 ft | 147 kts | 188° |
| 2026-04-27 20:21 | 43.45578 | -3.17386 | 3558 ft | 143 kts | 187° |
| 2026-04-27 20:21 | 43.44610 | -3.17645 | 3567 ft | 141 kts | 188° |
| 2026-04-27 20:21 | 43.43643 | -3.17929 | 3574 ft | 141 kts | 188° |
| 2026-04-27 20:22 | 43.42680 | -3.18230 | 3577 ft | 142 kts | 189° |
| 2026-04-27 20:22 | 43.41718 | -3.18541 | 3576 ft | 141 kts | 189° |
| 2026-04-27 20:22 | 43.40758 | -3.18808 | 3567 ft | 139 kts | 174° |
| 2026-04-27 20:22 | 43.40011 | -3.18216 | 3557 ft | 125 kts | 112° |
| 2026-04-27 20:23 | 43.39624 | -3.17124 | 3581 ft | 127 kts | 112° |
| 2026-04-27 20:23 | 43.39375 | -3.16391 | 3580 ft | 127 kts | 111° |
| 2026-04-27 20:23 | 43.38871 | -3.14904 | 3580 ft | 128 kts | 112° |
| 2026-04-27 20:23 | 43.38615 | -3.14171 | 3580 ft | 128 kts | 112° |
| 2026-04-27 20:24 | 43.38223 | -3.13072 | 3435 ft | 127 kts | 112° |
| 2026-04-27 20:24 | 43.37694 | -3.11620 | 3208 ft | 127 kts | 112° |
| 2026-04-27 20:24 | 43.37430 | -3.10903 | 3092 ft | 126 kts | 112° |
| 2026-04-27 20:24 | 43.37037 | -3.09840 | 2922 ft | 127 kts | 113° |
| 2026-04-27 20:25 | 43.36500 | -3.08397 | 2694 ft | 127 kts | 113° |
| 2026-04-27 20:25 | 43.36095 | -3.07308 | 2525 ft | 128 kts | 113° |
| 2026-04-27 20:25 | 43.35693 | -3.06228 | 2353 ft | 127 kts | 113° |
| 2026-04-27 20:25 | 43.35282 | -3.05116 | 2188 ft | 131 kts | 112° |
| 2026-04-27 20:26 | 43.34870 | -3.04002 | 2012 ft | 131 kts | 113° |
| 2026-04-27 20:26 | 43.34456 | -3.02884 | 1831 ft | 132 kts | 113° |
| 2026-04-27 20:26 | 43.34039 | -3.01753 | 1647 ft | 132 kts | 114° |
| 2026-04-27 20:26 | 43.33762 | -3.01001 | 1527 ft | 132 kts | 114° |
| 2026-04-27 20:27 | 43.33213 | -2.99512 | 1295 ft | 131 kts | 114° |
| 2026-04-27 20:27 | 43.32803 | -2.98396 | 1113 ft | 131 kts | 115° |
| 2026-04-27 20:27 | 43.32529 | -2.97644 | 995 ft | 131 kts | 115° |
| 2026-04-27 20:27 | 43.31980 | -2.96165 | 733 ft | 131 kts | 115° |
| 2026-04-27 20:28 | 43.31572 | -2.95045 | 540 ft | 130 kts | 115° |
| 2026-04-27 20:28 | 43.31162 | -2.93944 | 341 ft | 130 kts | 115° |
| 2026-04-27 20:28 | 43.30757 | -2.92824 | 216 ft | 130 kts | 115° |
| 2026-04-27 20:28 | 43.30486 | -2.92093 | 140 ft | 128 kts | 115° |
| 2026-04-27 20:29 | 43.30228 | -2.91386 | 140 ft | 19 kts | 116° |
| 2026-04-27 20:29 | 43.30186 | -2.91272 | 139 ft | 20 kts | 116° |
| 2026-04-27 20:29 | 43.30117 | -2.91077 | 139 ft | 22 kts | 112° |
| 2026-04-27 20:29 | 43.30081 | -2.90784 | 141 ft | 20 kts | 95° |
| 2026-04-27 20:30 | 43.30091 | -2.90633 | 144 ft | 12 kts | 50° |
| 2026-04-27 20:30 | 43.30136 | -2.90586 | 146 ft | 11 kts | 32° |
| 2026-04-27 20:30 | 43.30213 | -2.90537 | 152 ft | 5 kts | 9° |
| 2026-04-27 20:30 | 43.30233 | -2.90537 | 154 ft | 2 kts | 353° |
| 2026-04-27 20:31 | 43.30237 | -2.90538 | 155 ft | 0 kts | 352° |
| 2026-04-27 20:31 | 43.30281 | -2.90558 | 159 ft | 15 kts | 331° |
| 2026-04-27 20:31 | 43.30353 | -2.90656 | 164 ft | 14 kts | 302° |
| 2026-04-27 20:31 | 43.30396 | -2.90805 | 160 ft | 13 kts | 278° |
| 2026-04-27 20:32 | 43.30400 | -2.90858 | 158 ft | 2 kts | 288° |
| 2026-04-27 20:32 | 43.30412 | -2.90878 | 159 ft | 4 kts | 322° |
| 2026-04-27 20:32 | 43.30425 | -2.90884 | 160 ft | 0 kts | 353° |
| 2026-04-27 20:32 | 43.30446 | -2.90889 | 161 ft | 2 kts | 350° |
| 2026-04-27 20:33 | 43.30460 | -2.90891 | 162 ft | 0 kts | 354° |
| 2026-04-27 20:33 | 43.30461 | -2.90891 | 162 ft | 0 kts | 354° |